createdAt,value
2023-03-28T00:02:04.982Z,18.85
2023-03-28T00:04:31.459Z,11.40
2023-03-28T00:06:57.787Z,20.90
2023-03-28T00:09:25.657Z,15.65
2023-03-28T00:11:51.968Z,5.35
2023-03-28T00:14:18.298Z,19.85
2023-03-28T00:16:45.557Z,7.90
2023-03-28T00:19:15.639Z,12.20
2023-03-28T00:21:46.847Z,11.68
2023-03-28T00:26:43.167Z,15.95
2023-03-28T00:29:15.568Z,15.45
2023-03-28T00:31:42.437Z,10.45
2023-03-28T00:34:08.810Z,11.60
2023-03-28T00:36:35.116Z,18.25
2023-03-28T00:39:06.273Z,13.82
2023-03-28T00:41:35.370Z,14.93
2023-03-28T00:44:22.092Z,9.55
2023-03-28T00:46:48.447Z,13.95
2023-03-28T00:49:24.224Z,10.10
2023-03-28T00:51:57.356Z,11.07
2023-03-28T00:54:27.960Z,12.73
2023-03-28T00:56:57.425Z,11.30
2023-03-28T00:59:28.836Z,16.05
2023-03-28T01:01:55.870Z,11.90
2023-03-28T01:04:27.132Z,15.60
2023-03-28T01:06:58.757Z,10.90
2023-03-28T01:09:26.751Z,10.85
2023-03-28T01:11:56.086Z,10.18
2023-03-28T01:14:26.280Z,10.35
2023-03-28T01:16:56.398Z,11.02
2023-03-28T01:19:38.461Z,10.43
2023-03-28T01:22:32.639Z,12.90
2023-03-28T01:25:11.179Z,13.45
2023-03-28T01:28:01.963Z,9.88
2023-03-28T01:31:14.036Z,17.05
2023-03-28T01:33:56.462Z,13.13
2023-03-28T01:36:41.674Z,14.90
2023-03-28T01:39:48.894Z,12.73
2023-03-28T01:42:31.970Z,12.07
2023-03-28T01:45:14.959Z,16.80
2023-03-28T01:48:03.558Z,16.45
2023-03-28T01:50:35.641Z,16.38
2023-03-28T01:53:11.389Z,12.50
2023-03-28T01:55:48.550Z,15.60
2023-03-28T02:01:17.402Z,15.00
2023-03-28T02:03:51.880Z,12.43
2023-03-28T02:06:34.983Z,12.70
2023-03-28T02:09:04.197Z,16.55
2023-03-28T02:11:53.234Z,10.82
2023-03-28T02:14:37.091Z,14.82
2023-03-28T02:17:23.787Z,16.02
2023-03-28T02:20:24.647Z,10.68
2023-03-28T02:23:13.527Z,19.98
2023-03-28T02:25:49.714Z,15.60
2023-03-28T02:28:36.908Z,13.15
2023-03-28T02:31:15.452Z,13.02
2023-03-28T02:33:44.506Z,25.77
2023-03-28T02:36:35.145Z,7.95
2023-03-28T02:39:40.235Z,10.60
2023-03-28T02:42:38.069Z,11.93
2023-03-28T02:45:26.409Z,13.55
2023-03-28T02:48:30.333Z,11.38
2023-03-28T02:51:11.859Z,16.05
2023-03-28T02:53:49.628Z,12.32
2023-03-28T02:56:27.873Z,16.38
2023-03-28T02:59:18.200Z,17.30
2023-03-28T03:01:45.342Z,16.85
2023-03-28T03:04:13.408Z,12.75
2023-03-28T03:06:39.837Z,20.58
2023-03-28T03:09:06.183Z,12.05
2023-03-28T03:11:32.569Z,16.48
2023-03-28T03:14:00.266Z,13.38
2023-03-28T03:16:29.132Z,15.55
2023-03-28T03:18:57.206Z,15.15
2023-03-28T03:21:25.205Z,19.13
2023-03-28T03:23:52.061Z,17.77
2023-03-28T03:26:18.798Z,18.50
2023-03-28T03:28:53.936Z,15.82
2023-03-28T03:31:21.390Z,18.75
2023-03-28T03:34:07.481Z,16.35
2023-03-28T03:36:40.511Z,17.40
2023-03-28T03:39:07.513Z,14.80
2023-03-28T03:41:34.029Z,15.35
2023-03-28T03:44:00.725Z,12.48
2023-03-28T03:46:29.449Z,14.95
2023-03-28T03:48:55.989Z,16.30
2023-03-28T03:51:22.368Z,15.43
2023-03-28T03:53:52.244Z,12.55
2023-03-28T03:56:22.621Z,16.02
2023-03-28T03:58:53.800Z,18.50
2023-03-28T04:01:25.681Z,17.77
2023-03-28T04:03:53.281Z,14.45
2023-03-28T04:06:24.902Z,20.23
2023-03-28T04:08:51.445Z,12.50
2023-03-28T04:11:29.602Z,18.80
2023-03-28T04:13:56.036Z,19.98
2023-03-28T04:16:23.803Z,11.50
2023-03-28T04:18:57.724Z,13.45
2023-03-28T04:21:28.113Z,15.73
2023-03-28T04:23:55.802Z,13.70
2023-03-28T04:26:40.786Z,16.98
2023-03-28T04:29:10.439Z,17.23
2023-03-28T04:31:39.802Z,15.57
2023-03-28T04:34:31.305Z,17.15
2023-03-28T04:37:18.920Z,17.65
2023-03-28T04:39:53.947Z,11.93
2023-03-28T04:42:44.167Z,14.77
2023-03-28T04:45:15.048Z,17.48
2023-03-28T04:47:42.996Z,11.68
2023-03-28T04:50:16.487Z,12.60
2023-03-28T04:52:42.866Z,19.88
2023-03-28T04:55:10.247Z,22.42
2023-03-28T04:57:38.122Z,21.33
2023-03-28T05:00:09.863Z,20.08
2023-03-28T05:03:04.876Z,16.02
2023-03-28T05:05:37.059Z,13.15
2023-03-28T05:08:08.291Z,15.65
2023-03-28T05:10:34.664Z,17.45
2023-03-28T05:13:05.712Z,14.00
2023-03-28T05:15:39.276Z,10.27
2023-03-28T05:18:21.283Z,12.55
2023-03-28T05:20:47.689Z,10.82
2023-03-28T05:23:14.110Z,23.88
2023-03-28T05:25:42.851Z,18.77
2023-03-28T05:28:09.680Z,18.42
2023-03-28T05:30:45.899Z,18.90
2023-03-28T05:33:12.293Z,20.63
2023-03-28T05:35:39.098Z,28.02
2023-03-28T05:38:05.597Z,29.83
2023-03-28T05:40:32.410Z,24.55
2023-03-28T05:42:59.605Z,27.13
2023-03-28T05:45:26.369Z,26.25
2023-03-28T05:47:57.238Z,19.90
2023-03-28T05:50:26.159Z,18.98
2023-03-28T05:52:57.952Z,21.20
2023-03-28T05:55:24.353Z,19.85
2023-03-28T05:57:50.697Z,21.05
2023-03-28T06:00:20.559Z,18.48
2023-03-28T06:02:51.751Z,25.58
2023-03-28T06:05:21.512Z,25.30
2023-03-28T06:07:48.038Z,24.52
2023-03-28T06:10:17.383Z,22.33
2023-03-28T06:12:56.084Z,28.85
2023-03-28T06:15:22.982Z,24.42
2023-03-28T06:17:50.352Z,27.45
2023-03-28T06:20:17.091Z,19.55
2023-03-28T06:22:43.523Z,30.45
2023-03-28T06:25:10.882Z,26.25
2023-03-28T06:27:37.298Z,12.80
2023-03-28T06:30:04.624Z,20.83
2023-03-28T06:32:36.597Z,20.90
2023-03-28T06:35:03.449Z,18.10
2023-03-28T06:37:29.790Z,20.15
2023-03-28T06:40:06.146Z,27.15
2023-03-28T06:42:32.495Z,32.42
2023-03-28T06:45:14.757Z,25.70
2023-03-28T06:47:46.015Z,34.60
2023-03-28T06:50:12.735Z,28.75
2023-03-28T06:52:55.928Z,42.83
2023-03-28T06:55:22.680Z,34.38
2023-03-28T06:57:49.067Z,22.25
2023-03-28T07:00:29.501Z,15.07
2023-03-28T07:03:31.118Z,29.38
2023-03-28T07:05:58.381Z,20.73
2023-03-28T07:08:25.370Z,36.65
2023-03-28T07:10:52.287Z,86.55
2023-03-28T07:13:18.682Z,88.07
2023-03-28T07:16:05.618Z,50.53
2023-03-28T07:18:32.815Z,35.08
2023-03-28T07:21:03.966Z,19.33
2023-03-28T07:23:31.155Z,49.15
2023-03-28T07:25:57.476Z,34.53
2023-03-28T07:28:24.179Z,16.70
2023-03-28T07:30:54.079Z,16.20
2023-03-28T07:33:28.272Z,24.15
2023-03-28T07:36:07.751Z,29.75
2023-03-28T07:38:35.538Z,21.25
2023-03-28T07:41:02.421Z,21.50
2023-03-28T07:43:29.001Z,16.98
2023-03-28T07:46:06.562Z,14.98
2023-03-28T07:48:34.122Z,23.02
2023-03-28T07:51:02.541Z,27.25
2023-03-28T07:53:28.973Z,18.00
2023-03-28T07:55:56.351Z,27.35
2023-03-28T07:58:30.409Z,17.27
2023-03-28T08:01:08.623Z,15.20
2023-03-28T08:03:45.856Z,11.02
2023-03-28T08:06:28.547Z,14.88
2023-03-28T08:08:58.327Z,15.30
2023-03-28T08:11:35.461Z,14.25
2023-03-28T08:14:03.270Z,15.63
2023-03-28T08:16:30.592Z,13.70
2023-03-28T08:19:09.977Z,16.75
2023-03-28T08:21:48.238Z,20.33
2023-03-28T08:24:22.267Z,16.75
2023-03-28T08:27:01.533Z,19.63
2023-03-28T08:29:28.348Z,10.65
2023-03-28T08:31:54.669Z,30.77
2023-03-28T08:34:20.973Z,27.40
2023-03-28T08:36:48.801Z,14.05
2023-03-28T08:39:25.730Z,9.20
2023-03-28T08:42:15.403Z,19.35
2023-03-28T08:45:08.685Z,12.75
2023-03-28T08:47:53.760Z,16.70
2023-03-28T08:50:29.205Z,15.75
2023-03-28T08:52:55.733Z,14.05
2023-03-28T08:55:31.116Z,12.02
2023-03-28T08:57:58.828Z,10.70
2023-03-28T09:00:32.822Z,11.48
2023-03-28T09:03:00.438Z,15.90
2023-03-28T09:05:46.229Z,12.18
2023-03-28T09:08:19.825Z,21.48
2023-03-28T09:11:26.212Z,7.60
2023-03-28T09:14:06.651Z,8.77
2023-03-28T09:16:55.271Z,11.17
2023-03-28T09:19:48.976Z,9.70
2023-03-28T09:22:54.405Z,11.45
2023-03-28T09:25:32.707Z,9.63
2023-03-28T09:28:20.731Z,12.32
2023-03-28T09:30:50.170Z,11.88
2023-03-28T09:33:39.018Z,16.67
2023-03-28T09:36:22.553Z,7.80
2023-03-28T09:38:56.732Z,12.98
2023-03-28T09:41:31.246Z,17.55
2023-03-28T09:44:21.391Z,16.30
2023-03-28T09:47:14.757Z,40.95
2023-03-28T09:49:46.452Z,24.88
2023-03-28T09:52:18.511Z,6.43
2023-03-28T09:54:46.781Z,19.00
2023-03-28T09:57:13.276Z,16.48
2023-03-28T10:00:07.916Z,9.27
2023-03-28T10:02:54.673Z,10.68
2023-03-28T10:05:38.476Z,10.23
2023-03-28T10:08:23.214Z,19.20
2023-03-28T10:11:14.107Z,25.25
2023-03-28T10:13:45.494Z,18.25
2023-03-28T10:16:15.333Z,16.08
2023-03-28T10:19:13.963Z,17.63
2023-03-28T10:21:50.084Z,18.08
2023-03-28T10:24:22.264Z,10.20
2023-03-28T10:27:17.995Z,3.97
2023-03-28T10:29:46.609Z,11.80
2023-03-28T10:32:25.884Z,12.80
2023-03-28T10:35:27.920Z,9.98
2023-03-28T10:38:20.881Z,4.35
2023-03-28T10:41:21.469Z,6.88
2023-03-28T10:44:18.867Z,4.90
2023-03-28T10:46:55.039Z,7.30
2023-03-28T10:49:40.947Z,12.48
2023-03-28T10:52:40.572Z,11.15
2023-03-28T10:55:23.281Z,7.75
2023-03-28T10:58:12.824Z,3.60
2023-03-28T11:01:01.147Z,9.07
2023-03-28T11:04:04.663Z,4.35
2023-03-28T11:06:54.676Z,8.65
2023-03-28T11:10:01.207Z,6.72
2023-03-28T11:13:12.025Z,7.57
2023-03-28T11:16:01.921Z,6.00
2023-03-28T11:19:20.210Z,5.85
2023-03-28T11:22:13.167Z,6.63
2023-03-28T11:25:06.304Z,8.07
2023-03-28T11:28:15.476Z,8.15
2023-03-28T11:30:49.692Z,8.57
2023-03-28T11:33:46.789Z,8.15
2023-03-28T11:36:29.294Z,10.45
2023-03-28T11:39:05.741Z,4.22
2023-03-28T11:41:36.221Z,5.10
2023-03-28T11:44:21.275Z,11.60
2023-03-28T11:47:02.907Z,11.38
2023-03-28T11:49:50.536Z,11.93
2023-03-28T11:52:40.688Z,14.60
2023-03-28T11:55:15.269Z,6.60
2023-03-28T11:57:59.273Z,14.95
2023-03-28T12:00:34.747Z,15.60
2023-03-28T12:03:13.296Z,7.38
2023-03-28T12:06:00.064Z,6.85
2023-03-28T12:08:35.310Z,5.40
2023-03-28T12:14:11.439Z,17.00
2023-03-28T12:16:47.313Z,10.93
2023-03-28T12:19:30.383Z,8.80
2023-03-28T12:22:21.243Z,13.73
2023-03-28T12:24:55.821Z,17.60
2023-03-28T12:27:53.249Z,7.47
2023-03-28T12:30:42.878Z,12.52
2023-03-28T12:33:38.855Z,15.90
2023-03-28T12:36:28.354Z,14.15
2023-03-28T12:39:08.667Z,17.00
2023-03-28T12:41:39.693Z,23.65
2023-03-28T12:44:17.237Z,18.75
2023-03-28T12:46:55.302Z,10.00
2023-03-28T12:49:40.514Z,14.70
2023-03-28T12:52:18.445Z,10.93
2023-03-28T12:55:04.699Z,5.35
2023-03-28T12:57:40.332Z,4.95
2023-03-28T13:00:27.326Z,5.88
2023-03-28T13:03:26.909Z,4.60
2023-03-28T13:06:02.792Z,4.68
2023-03-28T13:09:13.048Z,7.05
2023-03-28T13:12:06.544Z,5.45
2023-03-28T13:14:41.470Z,5.60
2023-03-28T13:17:17.010Z,5.00
2023-03-28T13:19:43.327Z,5.00
2023-03-28T13:22:26.970Z,5.15
2023-03-28T13:24:54.973Z,5.63
2023-03-28T13:27:32.880Z,8.88
2023-03-28T13:30:04.988Z,6.05
2023-03-28T13:32:42.129Z,5.00
2023-03-28T13:35:44.581Z,9.10
2023-03-28T13:38:29.259Z,3.97
2023-03-28T13:41:00.524Z,7.93
2023-03-28T13:43:33.371Z,3.10
2023-03-28T13:46:06.290Z,4.22
2023-03-28T13:48:38.287Z,4.13
2023-03-28T13:51:10.812Z,2.97
2023-03-28T13:53:46.963Z,7.88
2023-03-28T13:56:21.610Z,9.38
2023-03-28T13:58:49.143Z,7.70
2023-03-28T14:01:26.259Z,10.40
2023-03-28T14:03:54.537Z,3.72
2023-03-28T14:06:24.023Z,7.07
2023-03-28T14:08:54.185Z,2.80
2023-03-28T14:11:26.126Z,5.55
2023-03-28T14:14:01.752Z,3.30
2023-03-28T14:16:28.223Z,3.42
2023-03-28T14:18:54.661Z,6.45
2023-03-28T14:21:24.924Z,4.68
2023-03-28T14:24:00.053Z,6.33
2023-03-28T14:26:30.675Z,6.63
2023-03-28T14:29:04.468Z,6.45
2023-03-28T14:34:32.204Z,4.63
2023-03-28T14:37:16.599Z,6.47
2023-03-28T14:39:43.465Z,5.28
2023-03-28T14:42:15.687Z,2.85
2023-03-28T14:44:45.008Z,5.80
2023-03-28T14:47:16.839Z,4.07
2023-03-28T14:49:44.376Z,3.95
2023-03-28T14:52:16.082Z,7.30
2023-03-28T14:54:49.111Z,5.63
2023-03-28T14:57:18.010Z,6.13
2023-03-28T14:59:46.962Z,8.55
2023-03-28T15:02:30.314Z,4.53
2023-03-28T15:05:01.159Z,7.03
2023-03-28T15:07:29.240Z,4.47
2023-03-28T15:10:19.786Z,6.65
2023-03-28T15:13:06.376Z,3.67
2023-03-28T15:15:44.076Z,3.38
2023-03-28T15:18:14.771Z,5.93
2023-03-28T15:20:45.362Z,6.03
2023-03-28T15:23:17.068Z,3.72
2023-03-28T15:25:44.616Z,8.02
2023-03-28T15:28:16.427Z,7.00
2023-03-28T15:30:45.434Z,4.30
2023-03-28T15:33:23.076Z,5.43
2023-03-28T15:35:49.640Z,6.55
2023-03-28T15:38:21.823Z,6.15
2023-03-28T15:41:06.334Z,4.68
2023-03-28T15:43:39.424Z,6.32
2023-03-28T15:46:11.853Z,4.90
2023-03-28T15:48:40.660Z,2.28
2023-03-28T15:51:15.908Z,2.88
2023-03-28T15:53:44.836Z,3.67
2023-03-28T15:56:25.372Z,2.67
2023-03-28T15:58:52.428Z,6.05
2023-03-28T16:01:21.680Z,5.97
2023-03-28T16:03:49.809Z,5.10
2023-03-28T16:09:12.814Z,7.38
2023-03-28T16:11:39.402Z,3.83
2023-03-28T16:14:24.576Z,6.70
2023-03-28T16:17:09.920Z,9.13
2023-03-28T16:19:46.473Z,5.60
2023-03-28T16:22:12.815Z,3.72
2023-03-28T16:24:39.159Z,6.00
2023-03-28T16:27:05.494Z,4.60
2023-03-28T16:29:31.892Z,6.95
2023-03-28T16:31:58.255Z,4.35
2023-03-28T16:34:24.800Z,6.40
2023-03-28T16:36:51.627Z,7.93
2023-03-28T16:39:17.928Z,5.85
2023-03-28T16:41:44.218Z,6.72
2023-03-28T16:44:10.895Z,4.63
2023-03-28T16:46:37.353Z,6.25
2023-03-28T16:49:03.764Z,4.50
2023-03-28T16:51:30.263Z,5.57
2023-03-28T16:53:56.564Z,7.47
2023-03-28T16:56:26.626Z,7.90
2023-03-28T16:58:54.121Z,7.55
2023-03-28T17:01:20.493Z,8.73
2023-03-28T17:03:47.357Z,7.35
2023-03-28T17:06:14.696Z,5.25
2023-03-28T17:08:41.261Z,9.35
2023-03-28T17:11:10.963Z,9.02
2023-03-28T17:13:39.295Z,12.27
2023-03-28T17:16:07.682Z,8.93
2023-03-28T17:18:34.185Z,7.50
2023-03-28T17:21:12.151Z,8.60
2023-03-28T17:23:40.594Z,6.50
2023-03-28T17:26:09.116Z,9.88
2023-03-28T17:28:39.715Z,9.10
2023-03-28T17:31:11.330Z,7.88
2023-03-28T17:33:38.364Z,9.20
2023-03-28T17:36:26.181Z,9.30
2023-03-28T17:38:55.516Z,8.00
2023-03-28T17:41:25.445Z,6.28
2023-03-28T17:43:52.761Z,10.02
2023-03-28T17:46:19.112Z,7.75
2023-03-28T17:48:45.548Z,10.52
2023-03-28T17:51:12.334Z,13.85
2023-03-28T17:53:40.045Z,11.20
2023-03-28T17:56:07.235Z,9.88
2023-03-28T17:58:33.564Z,16.58
2023-03-28T18:01:00.008Z,15.68
2023-03-28T18:03:27.619Z,12.18
2023-03-28T18:06:09.929Z,15.52
2023-03-28T18:08:36.616Z,11.70
2023-03-28T18:11:07.208Z,36.55
2023-03-28T18:13:35.358Z,11.82
2023-03-28T18:16:04.557Z,16.42
2023-03-28T18:18:31.685Z,14.90
2023-03-28T18:20:58.096Z,15.52
2023-03-28T18:23:25.160Z,22.67
2023-03-28T18:25:51.973Z,18.13
2023-03-28T18:28:22.017Z,26.73
2023-03-28T18:30:48.322Z,75.72
2023-03-28T18:33:15.760Z,62.97
2023-03-28T18:35:42.116Z,43.85
2023-03-28T18:38:08.545Z,19.90
2023-03-28T18:40:34.859Z,17.25
2023-03-28T18:43:01.148Z,33.78
2023-03-28T18:45:27.501Z,32.63
2023-03-28T18:47:53.966Z,20.63
2023-03-28T18:50:21.017Z,23.30
2023-03-28T18:52:47.680Z,28.20
2023-03-28T18:55:14.705Z,17.92
2023-03-28T18:57:41.156Z,23.60
2023-03-28T19:00:17.289Z,22.02
2023-03-28T19:02:48.234Z,39.47
2023-03-28T19:05:15.785Z,13.82
2023-03-28T19:07:45.141Z,21.33
2023-03-28T19:10:13.174Z,26.73
2023-03-28T19:12:41.024Z,21.52
2023-03-28T19:15:08.568Z,26.45
2023-03-28T19:17:36.677Z,15.95
2023-03-28T19:20:07.317Z,14.32
2023-03-28T19:22:35.005Z,15.73
2023-03-28T19:25:01.376Z,22.38
2023-03-28T19:27:27.723Z,14.15
2023-03-28T19:29:54.045Z,11.82
2023-03-28T19:32:20.463Z,14.48
2023-03-28T19:34:46.847Z,16.40
2023-03-28T19:37:13.669Z,21.60
2023-03-28T19:39:39.969Z,10.07
2023-03-28T19:42:06.262Z,12.15
2023-03-28T19:44:33.090Z,12.90
2023-03-28T19:46:59.743Z,9.93
2023-03-28T19:49:26.206Z,11.13
2023-03-28T19:51:53.344Z,18.92
2023-03-28T19:54:19.879Z,21.88
2023-03-28T19:56:46.763Z,8.18
2023-03-28T19:59:13.238Z,22.30
2023-03-28T20:01:39.694Z,23.83
2023-03-28T20:04:06.338Z,35.95
2023-03-28T20:06:32.683Z,35.95
2023-03-28T20:08:59.044Z,52.10
2023-03-28T20:11:26.420Z,65.78
2023-03-28T20:13:52.740Z,134.25
2023-03-28T20:16:19.143Z,64.20
2023-03-28T20:18:46.205Z,27.85
2023-03-28T20:21:13.783Z,33.58
2023-03-28T20:23:40.966Z,35.40
2023-03-28T20:26:15.271Z,38.05
2023-03-28T20:28:41.664Z,41.22
2023-03-28T20:31:14.055Z,83.93
2023-03-28T20:33:40.794Z,77.45
2023-03-28T20:36:07.341Z,68.15
2023-03-28T20:38:33.843Z,53.47
2023-03-28T20:41:00.710Z,66.38
2023-03-28T20:43:29.422Z,53.60
2023-03-28T20:46:01.369Z,53.55
2023-03-28T20:48:35.863Z,66.93
2023-03-28T20:51:15.792Z,98.88
2023-03-28T20:53:44.073Z,105.20
2023-03-28T20:56:11.903Z,62.85
2023-03-28T20:58:38.991Z,74.05
2023-03-28T21:01:07.109Z,103.10
2023-03-28T21:03:46.790Z,131.95
2023-03-28T21:06:25.789Z,118.82
2023-03-28T21:08:54.803Z,58.10
2023-03-28T21:11:26.140Z,29.38
2023-03-28T21:13:53.070Z,28.10
2023-03-28T21:16:20.872Z,34.60
2023-03-28T21:18:47.872Z,59.25
2023-03-28T21:21:16.257Z,47.65
2023-03-28T21:23:44.583Z,55.03
2023-03-28T21:26:14.333Z,105.18
2023-03-28T21:28:41.050Z,45.67
2023-03-28T21:31:10.838Z,24.45
2023-03-28T21:33:38.188Z,44.50
2023-03-28T21:36:08.754Z,29.80
2023-03-28T21:38:35.353Z,17.92
2023-03-28T21:41:02.548Z,25.17
2023-03-28T21:43:29.153Z,18.83
2023-03-28T21:45:55.807Z,12.40
2023-03-28T21:48:22.146Z,6.65
2023-03-28T21:50:58.874Z,10.70
2023-03-28T21:53:34.285Z,10.15
2023-03-28T21:56:01.064Z,5.97
2023-03-28T21:58:30.699Z,10.57
2023-03-28T22:00:57.340Z,8.95
2023-03-28T22:03:23.994Z,6.22
2023-03-28T22:05:53.022Z,4.78
2023-03-28T22:08:20.494Z,6.38
2023-03-28T22:10:51.272Z,4.68
2023-03-28T22:13:18.178Z,5.30
2023-03-28T22:15:44.806Z,7.75
2023-03-28T22:18:11.826Z,5.20
2023-03-28T22:20:39.783Z,6.28
2023-03-28T22:23:07.362Z,4.28
2023-03-28T22:25:38.031Z,5.57
2023-03-28T22:28:09.134Z,6.32
2023-03-28T22:30:37.398Z,5.95
2023-03-28T22:33:05.899Z,3.75
2023-03-28T22:35:33.394Z,7.30
2023-03-28T22:38:00.635Z,5.35
2023-03-28T22:40:27.389Z,5.88
2023-03-28T22:42:54.049Z,6.05
2023-03-28T22:45:26.286Z,5.93
2023-03-28T22:47:53.473Z,4.80
2023-03-28T22:50:19.826Z,7.22
2023-03-28T22:52:49.914Z,6.18
2023-03-28T22:55:17.540Z,4.80
2023-03-28T22:57:44.794Z,9.85
2023-03-28T23:00:13.674Z,6.32
2023-03-28T23:02:41.507Z,7.80
2023-03-28T23:05:09.303Z,7.35
2023-03-28T23:07:37.119Z,8.25
2023-03-28T23:10:08.234Z,6.80
2023-03-28T23:12:34.852Z,5.97
2023-03-28T23:15:01.238Z,4.80
2023-03-28T23:17:28.281Z,5.47
2023-03-28T23:19:54.922Z,6.93
2023-03-28T23:22:22.254Z,8.23
2023-03-28T23:24:51.504Z,3.85
2023-03-28T23:27:19.416Z,5.22
2023-03-28T23:29:46.057Z,5.50
2023-03-28T23:32:12.437Z,8.40
2023-03-28T23:34:38.860Z,13.32
2023-03-28T23:37:05.258Z,7.50
2023-03-28T23:39:32.285Z,5.38
2023-03-28T23:41:58.589Z,9.75
2023-03-28T23:44:25.244Z,3.95
2023-03-28T23:46:51.711Z,6.25
2023-03-28T23:49:21.225Z,6.60
2023-03-28T23:51:47.540Z,8.35
2023-03-28T23:54:15.461Z,5.57
2023-03-28T23:56:41.798Z,6.72
2023-03-28T23:59:08.108Z,7.45
